Time;durP1;ratioP1;P1;durP2;ratioP2;P2;SDS_P1;SDS_P2;PMS_P1;PMS_P2;Temp;Humidity;BMP_temperature;BMP_pressure;BME280_temperature;BME280_humidity;BME280_pressure;Samples;Min_cycle;Max_cycle;Signal;HPM_P1;HPM_P2
2022/06/16 00:02:05;;;;;;;1.72;1.12;;;;;;;24.74;45.60;101939.61;1762110;81;20994;-49
2022/06/16 00:04:32;;;;;;;1.87;1.20;;;;;;;24.70;45.61;101939.85;1764512;81;21046;-49
2022/06/16 00:06:59;;;;;;;2.12;1.10;;;;;;;24.65;45.27;101940.12;1779334;81;21034;-51
2022/06/16 00:09:27;;;;;;;3.92;1.22;;;;;;;24.61;45.16;101936.41;1779686;81;21530;-51
2022/06/16 00:11:54;;;;;;;1.90;1.10;;;;;;;24.55;45.08;101930.14;1775166;81;21019;-52
2022/06/16 00:14:27;;;;;;;2.35;1.25;;;;;;;24.54;45.10;101939.09;1764171;81;21026;-51
2022/06/16 00:16:54;;;;;;;2.87;1.40;;;;;;;24.50;45.06;101938.42;1762632;81;21488;-52
2022/06/16 00:19:24;;;;;;;2.92;1.55;;;;;;;24.46;44.87;101933.38;1761066;81;21015;-50
2022/06/16 00:21:51;;;;;;;5.75;1.70;;;;;;;24.37;44.19;101931.27;1764418;81;21078;-50
2022/06/16 00:24:18;;;;;;;1.70;1.60;;;;;;;24.37;44.19;101931.27;1762972;81;21054;-50
2022/06/16 00:26:45;;;;;;;3.17;1.55;;;;;;;24.32;44.22;101930.20;1764260;81;21019;-49
2022/06/16 00:29:11;;;;;;;3.22;1.90;;;;;;;24.27;44.09;101924.33;1761560;81;21004;-51
2022/06/16 00:31:38;;;;;;;4.17;2.37;;;;;;;24.27;43.94;101927.45;1772706;81;21043;-52
2022/06/16 00:34:05;;;;;;;1.70;1.47;;;;;;;24.25;43.91;101927.55;1763468;80;21058;-51
2022/06/16 00:36:34;;;;;;;1.95;1.60;;;;;;;24.23;43.86;101930.28;1770649;80;21077;-50
2022/06/16 00:39:01;;;;;;;2.80;1.80;;;;;;;24.20;43.85;101918.52;1770188;80;21051;-51
2022/06/16 00:41:28;;;;;;;3.92;1.90;;;;;;;24.20;43.87;101918.52;1773067;80;21542;-49
2022/06/16 00:44:04;;;;;;;4.33;1.87;;;;;;;24.18;43.84;101918.22;1768703;80;21010;-49
2022/06/16 00:46:33;;;;;;;3.50;1.90;;;;;;;24.16;43.73;101918.31;1764475;80;21507;-56
2022/06/16 00:49:03;;;;;;;3.77;1.60;;;;;;;24.12;43.78;101921.25;1772341;80;21047;-51
2022/06/16 00:51:33;;;;;;;2.45;1.42;;;;;;;24.08;43.78;101923.23;1744766;82;21022;-50
2022/06/16 00:54:17;;;;;;;3.02;2.00;;;;;;;23.99;43.90;101915.77;1775323;81;21514;-51
2022/06/16 00:56:47;;;;;;;5.00;2.20;;;;;;;23.97;43.71;101923.44;1744813;81;21038;-50
2022/06/16 00:59:14;;;;;;;3.55;2.40;;;;;;;23.90;43.63;101916.33;1762060;81;21050;-51
2022/06/16 01:01:43;;;;;;;3.50;1.82;;;;;;;23.90;43.32;101924.30;1774589;81;21057;-53
2022/06/16 01:06:57;;;;;;;3.45;2.12;;;;;;;23.82;43.15;101926.52;1767609;81;21003;-50
2022/06/16 01:09:29;;;;;;;5.50;1.85;;;;;;;23.81;43.13;101932.80;1768553;81;21022;-50
2022/06/16 01:15:55;;;;;;;4.12;2.20;;;;;;;23.78;43.19;101928.97;1764410;81;21026;-50
2022/06/16 01:18:44;;;;;;;3.05;1.80;;;;;;;23.72;43.19;101925.84;1771765;81;21031;-49
2022/06/16 01:21:29;;;;;;;3.35;2.00;;;;;;;23.68;43.12;101925.14;1766179;80;21081;-50
2022/06/16 01:24:28;;;;;;;3.42;2.12;;;;;;;23.64;43.19;101928.92;1760223;81;21069;-50
2022/06/16 01:27:50;;;;;;;3.35;1.67;;;;;;;23.60;43.37;101926.05;1765253;81;21519;-51
2022/06/16 01:30:20;;;;;;;3.27;1.87;;;;;;;23.57;43.42;101916.95;1766188;81;21007;-51
2022/06/16 01:33:16;;;;;;;3.00;2.10;;;;;;;23.53;43.67;101919.40;1766824;80;21010;-51
2022/06/16 01:36:26;;;;;;;3.75;1.77;;;;;;;23.50;43.79;101922.22;1736079;82;21027;-51
2022/06/16 01:39:13;;;;;;;2.62;1.92;;;;;;;23.47;43.51;101923.73;1693847;84;21609;-49
2022/06/16 01:41:47;;;;;;;6.40;2.08;;;;;;;23.44;43.83;101917.25;1580335;90;21062;-49
2022/06/16 01:44:34;;;;;;;1.95;1.67;;;;;;;23.42;44.44;101922.66;1556753;92;21089;-50
2022/06/16 01:47:09;;;;;;;3.30;1.80;;;;;;;23.40;44.78;101927.67;1545375;92;21105;-54
2022/06/16 01:49:44;;;;;;;4.05;2.00;;;;;;;23.39;45.14;101921.95;1554311;92;21569;-51
2022/06/16 01:52:34;;;;;;;4.70;2.10;;;;;;;23.39;45.50;101927.27;1475023;97;21113;-49
2022/06/16 01:55:10;;;;;;;3.45;2.00;;;;;;;23.40;45.74;101929.00;1477318;97;21124;-50
2022/06/16 01:57:46;;;;;;;2.42;1.90;;;;;;;23.42;45.93;101929.77;1404465;101;21731;-50
2022/06/16 02:00:19;;;;;;;5.08;1.98;;;;;;;23.45;46.12;101929.61;1337163;106;21244;-49
2022/06/16 02:03:08;;;;;;;2.45;1.80;;;;;;;23.48;46.55;101932.08;1337673;106;21231;-52
2022/06/16 02:05:52;;;;;;;4.35;2.33;;;;;;;23.51;47.08;101937.23;1305098;108;21702;-51
2022/06/16 02:08:34;;;;;;;5.22;2.37;;;;;;;23.53;47.35;101936.67;1308033;108;21193;-52
2022/06/16 02:11:19;;;;;;;5.08;2.47;;;;;;;23.54;47.69;101933.52;1307481;109;21185;-51
2022/06/16 02:14:03;;;;;;;4.80;2.45;;;;;;;23.52;48.24;101932.28;1264282;113;21752;-52
2022/06/16 02:16:32;;;;;;;3.77;2.25;;;;;;;23.54;48.54;101937.03;1244936;114;21755;-51
2022/06/16 02:19:00;;;;;;;3.12;2.40;;;;;;;23.55;48.80;101936.11;1294491;111;21225;-52
2022/06/16 02:21:39;;;;;;;3.58;2.58;;;;;;;23.56;48.99;101932.48;1295886;109;21711;-50
2022/06/16 02:24:14;;;;;;;4.83;3.17;;;;;;;23.58;49.25;101934.59;1257495;114;21262;-50
2022/06/16 02:26:41;;;;;;;5.55;2.70;;;;;;;23.59;49.25;101927.02;1256495;114;21208;-49
2022/06/16 02:29:37;;;;;;;5.60;2.45;;;;;;;23.64;49.17;101927.59;1259693;113;21246;-50
2022/06/16 02:32:45;;;;;;;5.25;2.83;;;;;;;23.70;49.23;101935.20;1256777;113;21224;-51
2022/06/16 02:35:45;;;;;;;8.23;3.00;;;;;;;23.76;49.14;101932.20;1255556;113;21213;-51
2022/06/16 02:38:36;;;;;;;3.50;2.65;;;;;;;23.82;49.22;101933.16;1255881;114;21215;-49
2022/06/16 02:41:26;;;;;;;4.13;2.80;;;;;;;23.86;49.35;101934.73;1280913;110;21210;-51
2022/06/16 02:44:04;;;;;;;3.27;2.40;;;;;;;23.86;49.52;101935.20;1307517;108;21203;-49
2022/06/16 02:46:39;;;;;;;4.80;2.92;;;;;;;23.85;49.64;101942.30;1307318;110;21230;-49
2022/06/16 02:49:31;;;;;;;5.03;3.08;;;;;;;23.84;49.71;101940.61;1305402;110;21683;-52
2022/06/16 02:52:19;;;;;;;7.75;3.87;;;;;;;23.83;49.53;101945.53;1305182;110;21191;-51
2022/06/16 02:55:13;;;;;;;5.70;4.00;;;;;;;23.63;49.90;101943.63;1351847;99;21109;-52
2022/06/16 02:57:45;;;;;;;6.33;4.28;;;;;;;23.78;49.78;101940.10;1444406;99;21148;-51
2022/06/16 03:00:22;;;;;;;8.43;4.90;;;;;;;23.86;49.78;101938.72;1448358;99;21120;-50
2022/06/16 03:02:51;;;;;;;12.28;5.28;;;;;;;23.91;50.01;101941.08;1516109;93;21096;-49
2022/06/16 03:05:19;;;;;;;9.88;5.92;;;;;;;23.94;50.23;101939.13;1528649;92;21096;-52
2022/06/16 03:07:45;;;;;;;10.35;5.00;;;;;;;23.97;50.35;101932.74;1530593;92;21592;-53
2022/06/16 03:10:50;;;;;;;6.35;4.60;;;;;;;24.06;50.71;101929.13;1484411;94;21110;-50
2022/06/16 03:12:45;;;;;;;6.60;4.72;;;;;;;24.06;50.71;101929.13;1514811;94;21106;-49
2022/06/16 03:15:14;;;;;;;9.20;3.62;;;;;;;24.11;50.24;101928.36;1513573;94;21640;-50
2022/06/16 03:17:42;;;;;;;11.53;4.25;;;;;;;24.17;50.81;101933.31;1513651;94;21152;-51
2022/06/16 03:20:11;;;;;;;10.65;5.40;;;;;;;24.17;50.81;101933.31;1513596;94;21109;-53
2022/06/16 03:22:39;;;;;;;11.03;7.12;;;;;;;24.22;50.87;101933.91;1489551;95;21100;-51
2022/06/16 03:25:09;;;;;;;10.25;6.75;;;;;;;24.32;50.03;101933.36;1520141;93;21144;-49
2022/06/16 03:27:38;;;;;;;8.83;6.47;;;;;;;24.32;50.03;101933.36;1500232;94;21123;-50
2022/06/16 03:30:06;;;;;;;8.95;5.50;;;;;;;24.36;49.96;101937.55;1480715;97;21115;-52
2022/06/16 03:32:35;;;;;;;8.00;5.20;;;;;;;24.42;49.49;101940.67;1502147;94;21677;-51
2022/06/16 03:35:03;;;;;;;6.50;4.15;;;;;;;24.48;48.45;101944.78;1481001;97;21177;-50
2022/06/16 03:37:30;;;;;;;5.08;3.67;;;;;;;24.53;47.75;101937.36;1480924;96;21124;-52
2022/06/16 03:39:59;;;;;;;8.48;4.50;;;;;;;24.57;47.34;101938.41;1498771;94;21103;-51
2022/06/16 03:42:27;;;;;;;5.25;3.85;;;;;;;24.60;46.83;101949.35;1480956;97;21087;-49
2022/06/16 03:44:54;;;;;;;4.97;4.05;;;;;;;24.59;46.16;101939.17;1480708;96;21114;-51
2022/06/16 03:47:22;;;;;;;8.38;5.00;;;;;;;24.59;46.16;101939.17;1481034;97;21139;-49
2022/06/16 03:49:50;;;;;;;10.58;4.62;;;;;;;24.60;46.14;101942.23;1504106;95;21156;-49
2022/06/16 03:52:17;;;;;;;6.60;4.95;;;;;;;24.58;46.09;101936.62;1481043;95;21112;-52
2022/06/16 03:54:46;;;;;;;8.38;4.97;;;;;;;24.60;46.13;101948.02;1537287;92;21139;-49
2022/06/16 03:57:13;;;;;;;7.72;4.58;;;;;;;24.58;46.25;101941.94;1567556;90;21122;-51
2022/06/16 03:59:41;;;;;;;6.62;4.72;;;;;;;24.60;45.79;101949.35;1574445;91;21076;-49
2022/06/16 04:02:13;;;;;;;6.47;4.10;;;;;;;24.58;45.08;101948.59;1603285;89;21529;-50
2022/06/16 04:04:41;;;;;;;4.30;3.80;;;;;;;24.57;44.49;101950.86;1606204;89;21579;-54
2022/06/16 04:07:10;;;;;;;6.08;3.67;;;;;;;24.56;44.57;101943.84;1672985;82;21498;-49
2022/06/16 04:09:40;;;;;;;5.72;3.22;;;;;;;24.56;44.51;101945.17;1753436;82;21007;-52
2022/06/16 04:12:08;;;;;;;5.12;2.85;;;;;;;24.56;45.12;101944.70;1745953;81;21077;-55
2022/06/16 04:14:37;;;;;;;4.33;2.95;;;;;;;24.56;45.56;101947.83;1740725;82;21053;-49
2022/06/16 04:17:07;;;;;;;3.87;2.98;;;;;;;24.56;46.11;101947.83;1739960;82;21079;-54
2022/06/16 04:20:11;;;;;;;5.92;2.35;;;;;;;24.56;46.11;101947.83;1662671;86;21097;-49
2022/06/16 04:22:05;;;;;;;3.12;2.12;;;;;;;24.57;46.14;101942.41;1658761;86;21102;-50
2022/06/16 04:24:38;;;;;;;4.22;1.50;;;;;;;24.59;46.26;101944.97;1601802;89;21092;-50
2022/06/16 04:27:06;;;;;;;2.25;1.45;;;;;;;24.62;46.68;101951.45;1601916;89;21168;-49
2022/06/16 04:29:33;;;;;;;3.45;1.50;;;;;;;24.62;46.68;101951.45;1602157;89;21529;-52
2022/06/16 04:32:00;;;;;;;3.90;1.67;;;;;;;24.61;46.45;101951.05;1602247;89;21577;-49
2022/06/16 04:34:39;;;;;;;3.77;1.50;;;;;;;24.64;46.06;101960.20;1588463;89;22547;-52
2022/06/16 04:37:06;;;;;;;2.45;1.72;;;;;;;24.65;45.52;101951.23;1602118;89;21128;-52
2022/06/16 04:39:34;;;;;;;2.15;1.55;;;;;;;24.65;45.12;101960.55;1602275;89;21518;-51
2022/06/16 04:42:01;;;;;;;1.82;0.95;;;;;;;24.64;45.08;101961.52;1602130;89;21115;-49
2022/06/16 04:44:28;;;;;;;3.83;1.22;;;;;;;24.63;44.82;101968.64;1602220;88;21106;-50
2022/06/16 04:46:55;;;;;;;2.77;1.20;;;;;;;24.59;44.43;101958.27;1602109;89;21145;-50
2022/06/16 04:49:26;;;;;;;1.43;1.10;;;;;;;24.59;43.87;101967.59;1602331;89;21041;-49
2022/06/16 04:51:53;;;;;;;1.32;1.00;;;;;;;24.58;43.49;101967.22;1597546;89;21103;-54
2022/06/16 04:54:20;;;;;;;1.37;1.00;;;;;;;24.54;42.10;101968.36;1601785;89;21076;-49
2022/06/16 04:56:58;;;;;;;2.35;1.12;;;;;;;24.54;42.10;101968.36;1553085;92;21093;-54
2022/06/16 04:59:43;;;;;;;2.90;1.50;;;;;;;24.53;42.63;101963.97;1553023;92;21081;-49
2022/06/16 05:02:12;;;;;;;3.35;1.20;;;;;;;24.53;42.92;101966.63;1555908;91;21062;-49
2022/06/16 05:04:59;;;;;;;3.05;1.47;;;;;;;24.52;43.08;101964.94;1542713;92;21580;-51
2022/06/16 05:07:30;;;;;;;3.35;1.32;;;;;;;24.55;43.48;101970.05;1495974;96;21047;-48
2022/06/16 05:10:06;;;;;;;3.55;1.40;;;;;;;24.58;43.15;101971.22;1421657;100;21118;-50
2022/06/16 05:12:34;;;;;;;2.65;1.30;;;;;;;24.61;42.40;101973.20;1439003;100;21149;-50
2022/06/16 05:15:15;;;;;;;2.62;1.10;;;;;;;24.66;41.00;101972.93;1420233;101;21594;-48
2022/06/16 05:17:54;;;;;;;2.72;1.42;;;;;;;24.68;40.38;101967.04;1484608;97;21115;-52
2022/06/16 05:20:33;;;;;;;2.60;1.20;;;;;;;24.67;40.41;101969.30;1486573;94;21115;-54
2022/06/16 05:23:20;;;;;;;2.83;1.75;;;;;;;24.68;39.98;101974.55;1530775;91;21081;-51
2022/06/16 05:25:48;;;;;;;3.27;1.30;;;;;;;24.70;40.15;101973.13;1478249;95;21119;-51
2022/06/16 05:28:18;;;;;;;2.83;1.00;;;;;;;24.73;40.59;101974.28;1434650;100;21263;-53
2022/06/16 05:30:48;;;;;;;2.08;1.30;;;;;;;24.74;41.06;101973.34;1382730;103;21179;-50
2022/06/16 05:33:35;;;;;;;3.30;1.35;;;;;;;24.77;41.35;101978.50;1382526;103;21169;-51
2022/06/16 05:36:22;;;;;;;1.72;1.20;;;;;;;24.78;41.33;101976.20;1387034;103;21157;-49
2022/06/16 05:38:51;;;;;;;2.22;1.25;;;;;;;24.79;41.39;101975.27;1335375;106;21140;-49
2022/06/16 05:41:26;;;;;;;2.80;1.00;;;;;;;24.82;41.40;101981.72;1274290;112;21202;-52
2022/06/16 05:44:11;;;;;;;1.07;0.98;;;;;;;24.83;41.14;101979.45;1308290;109;21280;-49
2022/06/16 05:46:46;;;;;;;1.98;1.20;;;;;;;24.84;41.15;101979.81;1273832;112;21218;-49
2022/06/16 05:49:15;;;;;;;1.90;1.27;;;;;;;24.82;41.35;101971.06;1277101;111;21737;-51
2022/06/16 05:51:44;;;;;;;2.62;1.20;;;;;;;24.85;41.63;101974.38;1263819;113;21198;-52
2022/06/16 05:54:12;;;;;;;2.40;1.15;;;;;;;24.87;41.81;101976.98;1263619;113;21324;-49
2022/06/16 05:56:41;;;;;;;1.92;1.12;;;;;;;24.88;41.66;101982.20;1263315;113;21300;-50
2022/06/16 05:59:08;;;;;;;1.70;1.20;;;;;;;24.91;41.60;101982.02;1265328;113;21686;-51
2022/06/16 06:01:38;;;;;;;9.03;1.82;;;;;;;24.94;41.38;101986.28;1279686;111;21184;-52
2022/06/16 06:04:07;;;;;;;2.25;1.17;;;;;;;24.97;41.33;101985.63;1263538;113;21138;-54
2022/06/16 06:06:35;;;;;;;2.42;1.22;;;;;;;25.02;41.08;101984.85;1301217;108;21188;-52
2022/06/16 06:17:28;;;;;;;1.75;1.30;;;;;;;25.15;39.58;101991.59;1315921;106;21197;-53
2022/06/16 06:19:55;;;;;;;2.75;1.55;;;;;;;25.17;39.59;101996.36;1406438;101;21128;-49
2022/06/16 06:24:58;;;;;;;4.85;1.20;;;;;;;25.20;39.72;101993.52;1557121;92;21091;-49
2022/06/16 06:27:44;;;;;;;1.65;1.20;;;;;;;25.23;39.73;101993.30;1558219;92;21145;-50
2022/06/16 06:30:19;;;;;;;1.30;1.02;;;;;;;25.23;39.84;101985.31;1558344;92;21027;-50
2022/06/16 06:32:47;;;;;;;2.17;1.10;;;;;;;25.25;39.89;101991.39;1558141;92;21035;-56
2022/06/16 06:35:19;;;;;;;2.77;1.40;;;;;;;25.25;40.31;101990.53;1631754;87;21000;-50
2022/06/16 06:37:46;;;;;;;3.03;1.30;;;;;;;25.25;39.92;101990.53;1635562;87;21043;-50
2022/06/16 06:40:21;;;;;;;2.00;1.27;;;;;;;25.26;40.46;101991.80;1636016;87;21088;-49
2022/06/16 06:42:48;;;;;;;1.85;0.93;;;;;;;25.29;40.36;101995.58;1635801;87;21065;-51
2022/06/16 06:45:18;;;;;;;2.95;1.12;;;;;;;25.34;39.98;101992.16;1636043;87;21030;-50
2022/06/16 06:47:46;;;;;;;1.50;1.30;;;;;;;25.39;40.01;101996.70;1636019;87;21049;-51
2022/06/16 06:50:24;;;;;;;1.22;1.02;;;;;;;25.44;40.07;101991.11;1635805;87;21112;-50
2022/06/16 06:52:51;;;;;;;4.85;1.25;;;;;;;25.49;39.59;101995.69;1635996;87;21041;-48
2022/06/16 06:55:19;;;;;;;1.05;1.00;;;;;;;25.52;39.25;101995.00;1635776;87;21072;-53
2022/06/16 06:57:45;;;;;;;1.55;1.00;;;;;;;25.56;39.21;101994.31;1636240;87;21033;-52
2022/06/16 07:00:16;;;;;;;2.87;1.50;;;;;;;25.62;38.72;102002.78;1636823;87;21573;-51
2022/06/16 07:02:43;;;;;;;3.42;1.10;;;;;;;25.68;38.49;101998.38;1635556;87;21522;-51
2022/06/16 07:05:10;;;;;;;2.83;1.20;;;;;;;25.75;37.81;102001.03;1635833;87;21155;-51
2022/06/16 07:07:37;;;;;;;1.42;0.93;;;;;;;25.81;36.85;102001.97;1636064;87;21080;-52
2022/06/16 07:10:06;;;;;;;1.55;1.07;;;;;;;25.88;36.33;102005.56;1636703;87;21017;-51
2022/06/16 07:12:34;;;;;;;1.20;0.90;;;;;;;25.94;35.57;102009.16;1636965;87;21517;-51
2022/06/16 07:15:02;;;;;;;3.15;1.25;;;;;;;25.99;35.23;102007.88;1635802;87;21042;-50
2022/06/16 07:17:29;;;;;;;1.85;0.90;;;;;;;26.05;35.18;102005.31;1635721;87;21065;-52
2022/06/16 07:19:55;;;;;;;1.35;1.00;;;;;;;26.12;34.96;102007.95;1635496;87;21061;-50
2022/06/16 07:22:22;;;;;;;3.08;1.20;;;;;;;26.18;34.52;102001.73;1716263;82;21097;-53
2022/06/16 07:24:49;;;;;;;1.45;0.93;;;;;;;26.24;34.91;102002.66;1733615;82;21042;-53
2022/06/16 07:27:18;;;;;;;1.75;1.07;;;;;;;26.32;34.85;102007.47;1765216;81;21494;-50
2022/06/16 07:29:49;;;;;;;5.15;1.17;;;;;;;26.40;34.85;101998.45;1765425;81;21012;-50
2022/06/16 07:32:14;;;;;;;1.70;1.30;;;;;;;26.47;33.95;102003.77;1757354;81;20982;-53
2022/06/16 07:34:41;;;;;;;2.15;1.40;;;;;;;26.57;34.05;102001.70;1760968;81;21466;-51
2022/06/16 07:37:08;;;;;;;3.35;1.70;;;;;;;26.67;34.60;102007.75;1766226;81;21531;-54
2022/06/16 07:39:35;;;;;;;4.53;1.77;;;;;;;26.71;34.94;102010.08;1764626;81;21000;-51
2022/06/16 07:42:04;;;;;;;9.60;1.77;;;;;;;26.76;34.93;102006.66;1768002;81;21042;-51
2022/06/16 07:44:31;;;;;;;3.52;2.05;;;;;;;26.82;34.56;102002.22;1764240;81;21046;-50
2022/06/16 07:46:58;;;;;;;4.47;2.40;;;;;;;26.87;35.45;102004.10;1766463;81;21027;-53
2022/06/16 07:49:27;;;;;;;1.92;1.65;;;;;;;26.94;35.68;102009.37;1764007;81;21046;-52
2022/06/16 07:51:54;;;;;;;4.42;2.42;;;;;;;27.02;35.65;102008.81;1762534;81;21062;-52
2022/06/16 07:54:23;;;;;;;3.75;1.40;;;;;;;27.08;35.30;102009.24;1761022;81;20991;-50
2022/06/16 07:56:51;;;;;;;2.72;1.85;;;;;;;27.15;35.59;102004.32;1760930;81;21011;-52
2022/06/16 07:59:17;;;;;;;4.22;1.35;;;;;;;27.23;35.35;102009.50;1778960;81;20999;-50
2022/06/16 08:01:44;;;;;;;2.70;1.80;;;;;;;27.35;36.14;102007.30;1764691;81;20987;-52
2022/06/16 08:04:12;;;;;;;3.42;1.65;;;;;;;27.48;35.36;102009.09;1767545;81;21578;-49
2022/06/16 08:06:39;;;;;;;5.28;1.90;;;;;;;27.60;34.22;102006.86;1768522;81;21003;-52
2022/06/16 08:09:07;;;;;;;2.25;1.60;;;;;;;27.69;33.98;102011.06;1766583;81;20971;-50
2022/06/16 08:14:20;;;;;;;2.22;1.27;;;;;;;27.79;32.17;102008.55;1766710;81;20991;-53
2022/06/16 08:16:47;;;;;;;2.10;1.42;;;;;;;27.82;32.04;102008.34;1757540;80;21479;-50
2022/06/16 08:19:14;;;;;;;3.08;1.72;;;;;;;27.84;32.48;102009.91;1770555;80;21015;-51
2022/06/16 08:21:41;;;;;;;2.65;1.40;;;;;;;27.89;32.74;102009.58;1766455;80;21007;-51
2022/06/16 08:24:08;;;;;;;2.00;1.22;;;;;;;27.93;31.86;102009.24;1766557;80;21148;-49
2022/06/16 08:26:35;;;;;;;1.87;1.40;;;;;;;27.96;32.72;102006.38;1768469;80;21014;-50
2022/06/16 08:29:02;;;;;;;2.20;1.50;;;;;;;28.03;32.86;102012.10;1763879;81;21066;-50
2022/06/16 08:31:30;;;;;;;5.60;1.45;;;;;;;28.07;33.07;102011.77;1762717;81;21062;-53
2022/06/16 08:33:56;;;;;;;2.42;1.50;;;;;;;28.09;33.19;102010.30;1766095;81;20967;-50
2022/06/16 08:36:25;;;;;;;3.70;1.55;;;;;;;28.10;33.39;102014.70;1768319;80;21018;-50
2022/06/16 08:38:52;;;;;;;2.22;1.50;;;;;;;28.14;32.65;102017.04;1758163;80;21046;-50
2022/06/16 08:41:40;;;;;;;1.90;1.30;;;;;;;28.20;32.91;102015.71;1777713;81;21027;-52
2022/06/16 08:44:42;;;;;;;2.83;1.42;;;;;;;28.23;32.64;102017.31;1770763;81;21030;-48
2022/06/16 08:47:19;;;;;;;3.27;0.93;;;;;;;28.23;32.14;102011.48;1759599;81;21058;-52
2022/06/16 08:50:23;;;;;;;1.52;1.00;;;;;;;28.27;29.85;102010.27;1759046;80;21027;-50
2022/06/16 08:53:19;;;;;;;1.42;0.82;;;;;;;28.30;29.52;102000.66;1761632;80;21066;-52
2022/06/16 08:56:09;;;;;;;1.40;0.85;;;;;;;28.36;30.00;102005.54;1758722;81;20979;-52
2022/06/16 08:59:13;;;;;;;0.70;0.70;;;;;;;28.41;29.10;102002.03;1762092;81;20995;-51
2022/06/16 09:01:44;;;;;;;2.52;1.20;;;;;;;28.50;28.35;102002.65;1764463;80;21025;-52
2022/06/16 09:04:35;;;;;;;5.17;1.40;;;;;;;28.62;28.89;102004.92;1762670;81;21039;-51
2022/06/16 09:07:28;;;;;;;2.85;1.40;;;;;;;28.74;30.78;101999.46;1765239;80;21015;-52
2022/06/16 09:10:37;;;;;;;3.95;2.12;;;;;;;28.90;31.35;101995.08;1767217;80;21046;-50
2022/06/16 09:13:22;;;;;;;3.65;2.00;;;;;;;29.07;31.53;101997.76;1763918;80;21058;-51
2022/06/16 09:16:30;;;;;;;2.25;1.75;;;;;;;29.23;31.89;101996.92;1763051;81;21038;-52
2022/06/16 09:19:24;;;;;;;3.67;1.98;;;;;;;29.33;32.18;101992.52;1757534;81;21005;-50
2022/06/16 09:22:19;;;;;;;2.75;1.60;;;;;;;29.43;31.91;101993.52;1758876;80;21668;-51
2022/06/16 09:25:03;;;;;;;2.83;1.85;;;;;;;29.53;32.13;101999.31;1758885;80;21050;-50
2022/06/16 09:27:41;;;;;;;2.47;1.70;;;;;;;29.58;32.24;101991.76;1766507;81;21074;-53
2022/06/16 09:30:14;;;;;;;2.25;1.72;;;;;;;29.64;32.37;101999.78;1768196;80;21042;-50
2022/06/16 09:32:52;;;;;;;3.62;1.62;;;;;;;29.70;32.29;101996.59;1752412;82;21558;-49
2022/06/16 09:36:00;;;;;;;9.25;2.45;;;;;;;29.77;31.92;101992.95;1700271;82;21911;-52
2022/06/16 09:38:36;;;;;;;1.72;1.55;;;;;;;29.85;31.52;101992.69;1707284;82;21129;-51
2022/06/16 09:44:34;;;;;;;5.78;1.70;;;;;;;29.92;31.93;101991.20;1653520;85;21071;-51
2022/06/16 09:47:06;;;;;;;4.83;1.67;;;;;;;29.94;32.22;101985.70;1663493;86;21093;-50
2022/06/16 09:49:54;;;;;;;2.42;1.50;;;;;;;29.91;32.69;101981.44;1662889;86;21122;-51
2022/06/16 09:52:35;;;;;;;2.75;1.25;;;;;;;29.89;33.12;101980.72;1605303;88;21105;-56
2022/06/16 09:55:13;;;;;;;4.97;1.75;;;;;;;29.87;32.97;101978.65;1611956;88;21082;-50
2022/06/16 09:57:47;;;;;;;2.20;1.40;;;;;;;29.86;32.80;101972.94;1605420;88;21035;-50
2022/06/16 10:00:21;;;;;;;5.55;1.60;;;;;;;29.86;32.60;101976.96;1613876;88;21102;-51
2022/06/16 10:02:55;;;;;;;2.33;1.45;;;;;;;29.86;33.23;101972.94;1613454;88;21009;-51
2022/06/16 10:05:37;;;;;;;2.75;1.42;;;;;;;29.85;33.20;101972.56;1611135;88;21133;-52
2022/06/16 10:08:15;;;;;;;2.20;1.57;;;;;;;29.81;33.20;101976.48;1558171;92;21098;-53
2022/06/16 10:11:07;;;;;;;2.12;1.60;;;;;;;29.80;33.84;101976.09;1557989;92;21034;-54
2022/06/16 10:14:02;;;;;;;3.20;1.42;;;;;;;29.78;32.71;101978.58;1557986;91;21093;-50
2022/06/16 10:16:43;;;;;;;2.70;1.47;;;;;;;29.73;33.04;101978.95;1529449;93;21085;-54
2022/06/16 10:19:09;;;;;;;4.20;1.35;;;;;;;29.75;32.91;101976.98;1525502;93;21158;-52
2022/06/16 10:21:37;;;;;;;3.70;1.70;;;;;;;29.80;32.68;101981.98;1526988;93;21161;-51
2022/06/16 10:24:05;;;;;;;5.78;1.77;;;;;;;29.84;32.78;101976.23;1524287;93;21127;-54
2022/06/16 10:26:34;;;;;;;5.65;1.45;;;;;;;29.89;31.99;101972.66;1498650;95;21178;-49
2022/06/16 10:29:06;;;;;;;4.75;1.25;;;;;;;29.95;31.98;101976.17;1527797;93;21150;-51
2022/06/16 10:31:45;;;;;;;2.87;1.27;;;;;;;30.01;32.05;101975.66;1535150;90;21562;-52
2022/06/16 10:34:28;;;;;;;3.90;1.60;;;;;;;30.05;31.57;101974.42;1578178;90;21122;-49
2022/06/16 10:37:04;;;;;;;3.50;1.62;;;;;;;30.08;31.40;101982.23;1565894;91;21550;-50
2022/06/16 10:39:42;;;;;;;1.62;1.22;;;;;;;30.09;30.76;101987.94;1523704;93;21107;-52
2022/06/16 10:42:45;;;;;;;2.22;1.27;;;;;;;30.11;31.22;101986.49;1424307;99;21105;-50
2022/06/16 10:45:17;;;;;;;2.45;1.07;;;;;;;30.13;30.78;101982.67;1405827;100;21166;-53
2022/06/16 10:47:51;;;;;;;3.85;1.80;;;;;;;30.17;30.65;101982.77;1438934;98;21063;-50
2022/06/16 10:50:25;;;;;;;7.03;1.55;;;;;;;30.21;30.98;101980.19;1413890;100;21202;-49
2022/06/16 10:52:56;;;;;;;3.15;1.40;;;;;;;30.26;30.58;101978.45;1416905;100;21169;-50
2022/06/16 10:55:29;;;;;;;2.75;1.05;;;;;;;30.30;30.82;101979.45;1414450;100;21113;-53
2022/06/16 10:58:03;;;;;;;1.87;0.95;;;;;;;30.34;30.74;101976.86;1418665;100;21157;-51
2022/06/16 11:00:32;;;;;;;1.60;1.05;;;;;;;30.41;30.58;101979.88;1399176;101;21694;-53
2022/06/16 11:03:10;;;;;;;3.45;1.12;;;;;;;30.46;30.62;101977.14;1401607;101;21154;-51
2022/06/16 11:05:57;;;;;;;1.82;0.95;;;;;;;30.46;30.87;101981.17;1399417;101;21464;-50
2022/06/16 11:08:35;;;;;;;1.42;0.98;;;;;;;30.47;30.34;101969.95;1410255;100;21133;-53
2022/06/16 11:11:03;;;;;;;1.37;1.10;;;;;;;30.46;30.37;101970.92;1437402;98;21141;-49
2022/06/16 11:13:33;;;;;;;1.75;0.90;;;;;;;30.46;30.32;101973.12;1435100;99;21147;-52
2022/06/16 11:16:11;;;;;;;1.60;0.98;;;;;;;30.50;30.38;101973.21;1399401;101;21175;-57
2022/06/16 11:18:38;;;;;;;2.85;1.00;;;;;;;30.56;30.71;101970.99;1401415;101;21671;-53
2022/06/16 11:21:21;;;;;;;3.02;0.90;;;;;;;30.63;31.15;101980.20;1400194;101;21118;-52
2022/06/16 11:23:51;;;;;;;1.40;0.93;;;;;;;30.65;30.58;101976.41;1438934;98;21097;-51
2022/06/16 11:26:28;;;;;;;3.20;1.40;;;;;;;30.69;30.12;101979.67;1456370;97;21122;-50
2022/06/16 11:29:15;;;;;;;4.53;1.05;;;;;;;30.73;29.97;101984.66;1478362;96;21129;-51
2022/06/16 11:31:45;;;;;;;2.22;0.90;;;;;;;30.82;29.29;101980.31;1494241;94;21081;-51
2022/06/16 11:34:25;;;;;;;1.95;0.80;;;;;;;30.88;29.71;101981.16;1495163;94;21580;-53
2022/06/16 11:37:09;;;;;;;3.87;0.93;;;;;;;30.94;29.67;101979.27;1488719;94;21198;-50
2022/06/16 11:40:03;;;;;;;1.45;0.90;;;;;;;31.02;29.84;101978.09;1528443;91;21076;-50
2022/06/16 11:43:15;;;;;;;1.52;0.80;;;;;;;31.08;28.48;101976.20;1500376;94;21181;-52
2022/06/16 11:45:59;;;;;;;3.12;1.02;;;;;;;31.11;29.79;101978.64;1486851;96;21053;-52
2022/06/16 11:48:35;;;;;;;2.15;0.98;;;;;;;31.07;30.42;101974.04;1574190;90;22076;-49
2022/06/16 11:51:26;;;;;;;1.05;0.88;;;;;;;31.01;30.01;101971.89;1472449;96;21081;-48
2022/06/16 11:54:23;;;;;;;2.02;0.90;;;;;;;30.94;29.92;101968.52;1482488;96;21120;-52
2022/06/16 11:57:10;;;;;;;2.47;0.93;;;;;;;30.92;30.20;101968.66;1495904;93;21105;-51
2022/06/16 11:59:53;;;;;;;3.22;0.90;;;;;;;30.95;29.81;101966.20;1504296;95;21195;-55
2022/06/16 12:02:40;;;;;;;2.62;1.30;;;;;;;30.99;29.54;101967.15;1507900;95;21079;-51
2022/06/16 12:05:33;;;;;;;2.22;0.90;;;;;;;31.04;29.72;101965.37;1501256;95;21108;-55
2022/06/16 12:08:25;;;;;;;2.02;0.90;;;;;;;31.07;30.08;101961.08;1499927;95;21172;-50
2022/06/16 12:10:59;;;;;;;1.60;1.07;;;;;;;31.11;30.18;101958.47;1541389;92;21186;-53
2022/06/16 12:13:57;;;;;;;2.22;1.00;;;;;;;31.14;30.50;101956.88;1525389;93;21554;-49
2022/06/16 12:16:35;;;;;;;1.12;0.72;;;;;;;31.15;30.91;101958.55;1541989;92;21093;-51
2022/06/16 12:19:32;;;;;;;1.12;0.75;;;;;;;31.16;30.53;101960.27;1536707;92;21161;-50
2022/06/16 12:22:25;;;;;;;0.93;0.80;;;;;;;31.16;30.63;101950.86;1553905;91;21153;-51
2022/06/16 12:25:00;;;;;;;1.72;0.80;;;;;;;31.13;30.34;101956.02;1544858;92;21143;-53
2022/06/16 12:27:41;;;;;;;5.22;0.80;;;;;;;31.12;30.77;101951.61;1539363;93;21115;-52